Atkinson, Maine
Current Conditions -  °F | °C
As of 2:53 AM on Friday 19 Dec 2014 (Local Time) from KBGR Reporting Station
Scattered Clouds Scattered Clouds  
Wind Chill: -6°   Ceiling: Unl
Heat Index: -2°   Visibility: 10mi
Dew Point: -5°   Wind: 6mph
Humidity: 81%   Direction: 280°W
Pressure: 29.77"   Gusts: NA
Location:  45.2129°N, 69.1615°W
Report Text: KBGR 190753Z 28005KT 10SM SCT038 M02/M05 A2977 RMK AO2 SLP082 T10221050
Loading
Personal Weather Stations






























Interactive Weather Map New forecast layout! Learn more

10-Day Weather Forecast

Advertisements
Track Severe Weather on mobile